sensor_id;sensor_type;location;lat;lon;timestamp;pressure;altitude;pressure_sealevel;temperature;humidity
49377;BME280;35253;34.688;33.040;2023-01-29T00:01:56;100931.69;;;15.01;100.00
49377;BME280;35253;34.688;33.040;2023-01-29T00:04:21;100940.28;;;15.06;100.00
49377;BME280;35253;34.688;33.040;2023-01-29T00:06:47;100940.75;;;15.00;100.00
49377;BME280;35253;34.688;33.040;2023-01-29T00:09:13;100941.50;;;14.89;100.00
49377;BME280;35253;34.688;33.040;2023-01-29T00:11:39;100944.63;;;14.96;100.00
49377;BME280;35253;34.688;33.040;2023-01-29T00:14:05;100945.59;;;14.95;100.00
49377;BME280;35253;34.688;33.040;2023-01-29T00:16:30;100944.81;;;14.93;100.00
49377;BME280;35253;34.688;33.040;2023-01-29T00:18:56;100947.50;;;14.93;100.00
49377;BME280;35253;34.688;33.040;2023-01-29T00:21:22;100948.16;;;14.96;100.00
49377;BME280;35253;34.688;33.040;2023-01-29T00:23:47;100945.59;;;14.95;100.00
49377;BME280;35253;34.688;33.040;2023-01-29T00:26:13;100953.34;;;14.86;100.00
49377;BME280;35253;34.688;33.040;2023-01-29T00:28:39;100943.91;;;14.81;100.00
49377;BME280;35253;34.688;33.040;2023-01-29T00:31:11;100954.38;;;14.97;100.00
49377;BME280;35253;34.688;33.040;2023-01-29T00:33:37;100942.41;;;14.77;100.00
49377;BME280;35253;34.688;33.040;2023-01-29T00:36:03;100939.81;;;14.75;100.00
49377;BME280;35253;34.688;33.040;2023-01-29T00:38:29;100948.22;;;14.71;100.00
49377;BME280;35253;34.688;33.040;2023-01-29T00:40:55;100947.16;;;14.73;100.00
49377;BME280;35253;34.688;33.040;2023-01-29T00:43:39;100957.13;;;14.71;100.00
49377;BME280;35253;34.688;33.040;2023-01-29T00:46:23;100951.69;;;14.60;100.00
49377;BME280;35253;34.688;33.040;2023-01-29T00:48:49;100946.09;;;14.63;100.00
49377;BME280;35253;34.688;33.040;2023-01-29T00:51:14;100960.66;;;14.72;100.00
49377;BME280;35253;34.688;33.040;2023-01-29T00:53:39;100955.97;;;14.63;100.00
49377;BME280;35253;34.688;33.040;2023-01-29T00:56:05;100961.22;;;14.64;100.00
49377;BME280;35253;34.688;33.040;2023-01-29T00:58:30;100960.47;;;14.62;100.00
49377;BME280;35253;34.688;33.040;2023-01-29T01:00:59;100955.84;;;14.64;100.00
49377;BME280;35253;34.688;33.040;2023-01-29T01:03:25;100958.53;;;14.64;100.00
49377;BME280;35253;34.688;33.040;2023-01-29T01:06:00;100959.28;;;14.54;100.00
49377;BME280;35253;34.688;33.040;2023-01-29T01:08:26;100956.59;;;14.28;100.00
49377;BME280;35253;34.688;33.040;2023-01-29T01:11:10;100954.88;;;14.27;100.00
49377;BME280;35253;34.688;33.040;2023-01-29T01:13:35;100952.63;;;14.21;100.00
49377;BME280;35253;34.688;33.040;2023-01-29T01:16:01;100957.66;;;14.13;100.00
49377;BME280;35253;34.688;33.040;2023-01-29T01:18:29;100954.22;;;14.24;100.00
49377;BME280;35253;34.688;33.040;2023-01-29T01:20:56;100957.47;;;14.16;100.00
49377;BME280;35253;34.688;33.040;2023-01-29T01:23:21;100951.78;;;14.21;100.00
49377;BME280;35253;34.688;33.040;2023-01-29T01:25:47;100962.81;;;14.16;100.00
49377;BME280;35253;34.688;33.040;2023-01-29T01:28:12;100959.59;;;14.24;100.00
49377;BME280;35253;34.688;33.040;2023-01-29T01:30:38;100960.47;;;14.24;100.00
49377;BME280;35253;34.688;33.040;2023-01-29T01:33:03;100953.28;;;14.12;100.00
49377;BME280;35253;34.688;33.040;2023-01-29T01:35:29;100960.56;;;14.23;100.00
49377;BME280;35253;34.688;33.040;2023-01-29T01:37:54;100959.81;;;14.21;100.00
49377;BME280;35253;34.688;33.040;2023-01-29T01:40:20;100963.47;;;14.32;100.00
49377;BME280;35253;34.688;33.040;2023-01-29T01:42:46;100966.03;;;14.34;100.00
49377;BME280;35253;34.688;33.040;2023-01-29T01:45:29;100954.72;;;14.43;100.00
49377;BME280;35253;34.688;33.040;2023-01-29T01:47:56;100954.72;;;14.43;100.00
49377;BME280;35253;34.688;33.040;2023-01-29T01:50:31;100958.25;;;14.43;100.00
49377;BME280;35253;34.688;33.040;2023-01-29T01:53:08;100951.88;;;14.57;100.00
49377;BME280;35253;34.688;33.040;2023-01-29T01:55:37;100958.75;;;14.36;100.00
49377;BME280;35253;34.688;33.040;2023-01-29T01:58:07;100962.59;;;14.32;100.00
49377;BME280;35253;34.688;33.040;2023-01-29T02:00:33;100958.44;;;14.40;100.00
49377;BME280;35253;34.688;33.040;2023-01-29T02:02:58;100960.50;;;14.37;100.00
49377;BME280;35253;34.688;33.040;2023-01-29T02:05:44;100957.00;;;14.35;100.00
49377;BME280;35253;34.688;33.040;2023-01-29T02:08:30;100947.16;;;14.48;100.00
49377;BME280;35253;34.688;33.040;2023-01-29T02:11:16;100954.47;;;14.59;100.00
49377;BME280;35253;34.688;33.040;2023-01-29T02:13:42;100952.97;;;14.42;100.00
49377;BME280;35253;34.688;33.040;2023-01-29T02:16:08;100944.03;;;14.29;100.00
49377;BME280;35253;34.688;33.040;2023-01-29T02:18:33;100935.16;;;14.41;100.00
49377;BME280;35253;34.688;33.040;2023-01-29T02:23:44;100943.97;;;14.43;100.00
49377;BME280;35253;34.688;33.040;2023-01-29T02:29:05;100939.88;;;14.25;100.00
49377;BME280;35253;34.688;33.040;2023-01-29T02:37:17;100928.91;;;14.15;100.00
49377;BME280;35253;34.688;33.040;2023-01-29T02:39:50;100931.91;;;14.11;100.00
49377;BME280;35253;34.688;33.040;2023-01-29T02:42:35;100932.34;;;14.05;100.00
49377;BME280;35253;34.688;33.040;2023-01-29T02:45:04;100925.06;;;14.07;100.00
49377;BME280;35253;34.688;33.040;2023-01-29T02:47:41;100919.69;;;13.94;100.00
49377;BME280;35253;34.688;33.040;2023-01-29T02:53:20;100910.69;;;13.95;100.00
49377;BME280;35253;34.688;33.040;2023-01-29T02:55:50;100909.72;;;14.09;100.00
49377;BME280;35253;34.688;33.040;2023-01-29T03:00:43;100908.97;;;14.07;100.00
49377;BME280;35253;34.688;33.040;2023-01-29T03:05:47;100918.84;;;13.93;100.00
49377;BME280;35253;34.688;33.040;2023-01-29T03:08:17;100915.19;;;13.94;100.00
49377;BME280;35253;34.688;33.040;2023-01-29T03:10:51;100918.41;;;13.99;100.00
49377;BME280;35253;34.688;33.040;2023-01-29T03:15:55;100914.25;;;14.08;100.00
49377;BME280;35253;34.688;33.040;2023-01-29T03:18:26;100921.41;;;14.08;100.00
49377;BME280;35253;34.688;33.040;2023-01-29T03:20:56;100921.84;;;14.02;100.00
49377;BME280;35253;34.688;33.040;2023-01-29T03:23:28;100918.75;;;14.08;100.00
49377;BME280;35253;34.688;33.040;2023-01-29T03:26:13;100928.47;;;14.09;100.00
49377;BME280;35253;34.688;33.040;2023-01-29T03:28:59;100930.84;;;14.00;100.00
49377;BME280;35253;34.688;33.040;2023-01-29T03:31:50;100931.47;;;14.04;100.00
49377;BME280;35253;34.688;33.040;2023-01-29T03:34:35;100934.59;;;14.11;100.00
49377;BME280;35253;34.688;33.040;2023-01-29T03:37:17;100937.91;;;14.14;100.00
49377;BME280;35253;34.688;33.040;2023-01-29T03:39:45;100934.59;;;14.23;100.00
49377;BME280;35253;34.688;33.040;2023-01-29T03:42:25;100939.56;;;14.17;100.00
49377;BME280;35253;34.688;33.040;2023-01-29T03:47:20;100942.22;;;14.29;100.00
49377;BME280;35253;34.688;33.040;2023-01-29T03:49:52;100938.81;;;14.40;100.00
49377;BME280;35253;34.688;33.040;2023-01-29T03:53:02;100949.09;;;14.33;100.00
49377;BME280;35253;34.688;33.040;2023-01-29T04:02:51;100946.81;;;14.15;100.00
49377;BME280;35253;34.688;33.040;2023-01-29T04:05:22;100950.28;;;14.17;100.00
49377;BME280;35253;34.688;33.040;2023-01-29T04:07:50;100950.16;;;14.18;100.00
49377;BME280;35253;34.688;33.040;2023-01-29T04:10:18;100957.88;;;14.23;100.00
49377;BME280;35253;34.688;33.040;2023-01-29T04:13:05;100950.16;;;14.18;100.00
49377;BME280;35253;34.688;33.040;2023-01-29T04:15:33;100959.91;;;14.07;100.00
49377;BME280;35253;34.688;33.040;2023-01-29T04:18:00;100958.97;;;14.08;100.00
49377;BME280;35253;34.688;33.040;2023-01-29T04:20:26;100955.50;;;14.06;100.00
49377;BME280;35253;34.688;33.040;2023-01-29T04:22:52;100955.19;;;13.97;100.00
49377;BME280;35253;34.688;33.040;2023-01-29T04:25:25;100951.63;;;13.97;100.00
49377;BME280;35253;34.688;33.040;2023-01-29T04:30:25;100952.91;;;13.91;100.00
49377;BME280;35253;34.688;33.040;2023-01-29T04:35:27;100952.59;;;13.96;100.00
49377;BME280;35253;34.688;33.040;2023-01-29T04:37:59;100951.22;;;13.90;100.00
49377;BME280;35253;34.688;33.040;2023-01-29T04:42:55;100946.28;;;13.97;100.00
49377;BME280;35253;34.688;33.040;2023-01-29T04:45:26;100948.09;;;14.09;100.00
49377;BME280;35253;34.688;33.040;2023-01-29T04:50:27;100943.91;;;13.92;100.00
49377;BME280;35253;34.688;33.040;2023-01-29T04:52:57;100946.69;;;13.91;100.00
49377;BME280;35253;34.688;33.040;2023-01-29T04:58:03;100947.78;;;13.88;100.00
49377;BME280;35253;34.688;33.040;2023-01-29T05:00:33;100948.00;;;13.85;100.00
49377;BME280;35253;34.688;33.040;2023-01-29T05:02:59;100946.81;;;13.89;100.00
49377;BME280;35253;34.688;33.040;2023-01-29T05:05:25;100945.00;;;14.03;100.00
49377;BME280;35253;34.688;33.040;2023-01-29T05:07:52;100950.25;;;14.04;100.00
49377;BME280;35253;34.688;33.040;2023-01-29T05:10:19;100948.88;;;13.98;100.00
49377;BME280;35253;34.688;33.040;2023-01-29T05:12:46;100951.00;;;14.06;100.00
49377;BME280;35253;34.688;33.040;2023-01-29T05:15:15;100960.88;;;14.06;100.00
49377;BME280;35253;34.688;33.040;2023-01-29T05:17:42;100952.41;;;13.99;100.00
49377;BME280;35253;34.688;33.040;2023-01-29T05:20:08;100954.88;;;14.02;100.00
49377;BME280;35253;34.688;33.040;2023-01-29T05:22:36;100948.00;;;14.11;100.00
49377;BME280;35253;34.688;33.040;2023-01-29T05:25:02;100951.56;;;14.11;100.00
49377;BME280;35253;34.688;33.040;2023-01-29T05:27:31;100950.59;;;14.12;100.00
49377;BME280;35253;34.688;33.040;2023-01-29T05:30:17;100945.66;;;14.19;100.00
49377;BME280;35253;34.688;33.040;2023-01-29T05:32:43;100944.69;;;14.20;100.00
49377;BME280;35253;34.688;33.040;2023-01-29T05:35:08;100951.56;;;14.24;100.00
49377;BME280;35253;34.688;33.040;2023-01-29T05:37:34;100949.28;;;14.18;100.00
49377;BME280;35253;34.688;33.040;2023-01-29T05:39:59;100947.59;;;14.29;100.00
49377;BME280;35253;34.688;33.040;2023-01-29T05:42:25;100950.41;;;14.40;100.00
49377;BME280;35253;34.688;33.040;2023-01-29T05:44:50;100950.84;;;14.47;100.00
49377;BME280;35253;34.688;33.040;2023-01-29T05:47:19;100947.69;;;14.53;100.00
49377;BME280;35253;34.688;33.040;2023-01-29T05:49:44;100948.69;;;14.52;100.00
49377;BME280;35253;34.688;33.040;2023-01-29T05:52:10;100952.94;;;14.67;100.00
49377;BME280;35253;34.688;33.040;2023-01-29T05:54:35;100949.50;;;14.78;100.00
49377;BME280;35253;34.688;33.040;2023-01-29T05:57:00;100948.34;;;14.69;100.00
49377;BME280;35253;34.688;33.040;2023-01-29T05:59:26;100950.13;;;14.81;100.00
49377;BME280;35253;34.688;33.040;2023-01-29T06:01:51;100952.22;;;14.65;100.00
49377;BME280;35253;34.688;33.040;2023-01-29T06:04:17;100950.06;;;14.58;100.00
49377;BME280;35253;34.688;33.040;2023-01-29T06:06:42;100955.94;;;14.75;100.00
49377;BME280;35253;34.688;33.040;2023-01-29T06:09:09;100949.22;;;14.94;100.00
49377;BME280;35253;34.688;33.040;2023-01-29T06:11:34;100958.25;;;14.93;100.00
49377;BME280;35253;34.688;33.040;2023-01-29T06:14:00;100967.34;;;15.03;100.00
49377;BME280;35253;34.688;33.040;2023-01-29T06:16:25;100968.94;;;15.18;100.00
49377;BME280;35253;34.688;33.040;2023-01-29T06:18:50;100973.81;;;14.87;100.00
49377;BME280;35253;34.688;33.040;2023-01-29T06:21:16;100976.56;;;15.11;100.00
49377;BME280;35253;34.688;33.040;2023-01-29T06:23:41;100974.78;;;14.99;100.00
49377;BME280;35253;34.688;33.040;2023-01-29T06:26:09;100975.41;;;15.03;100.00
49377;BME280;35253;34.688;33.040;2023-01-29T06:28:34;100967.22;;;15.17;100.00
49377;BME280;35253;34.688;33.040;2023-01-29T06:31:00;100964.25;;;15.09;100.00
49377;BME280;35253;34.688;33.040;2023-01-29T06:33:26;100967.66;;;15.11;100.00
49377;BME280;35253;34.688;33.040;2023-01-29T06:35:58;100965.78;;;15.00;100.00
49377;BME280;35253;34.688;33.040;2023-01-29T06:38:24;100972.66;;;14.92;100.00
49377;BME280;35253;34.688;33.040;2023-01-29T06:40:50;100972.44;;;14.95;100.00
49377;BME280;35253;34.688;33.040;2023-01-29T06:43:15;100973.97;;;15.10;100.00
49377;BME280;35253;34.688;33.040;2023-01-29T06:45:48;100976.56;;;15.11;100.00
49377;BME280;35253;34.688;33.040;2023-01-29T06:48:13;100979.88;;;15.15;100.00
49377;BME280;35253;34.688;33.040;2023-01-29T06:50:39;100981.66;;;15.27;100.00
49377;BME280;35253;34.688;33.040;2023-01-29T06:53:04;100984.81;;;15.21;100.00
49377;BME280;35253;34.688;33.040;2023-01-29T06:55:29;100982.66;;;15.26;100.00
49377;BME280;35253;34.688;33.040;2023-01-29T06:57:55;100980.34;;;15.32;100.00
49377;BME280;35253;34.688;33.040;2023-01-29T07:00:20;100979.84;;;15.27;100.00
49377;BME280;35253;34.688;33.040;2023-01-29T07:02:49;100974.31;;;15.18;100.00
49377;BME280;35253;34.688;33.040;2023-01-29T07:05:14;100975.75;;;15.34;100.00
49377;BME280;35253;34.688;33.040;2023-01-29T07:07:40;100976.41;;;15.49;100.00
49377;BME280;35253;34.688;33.040;2023-01-29T07:10:05;100984.91;;;15.56;100.00
49377;BME280;35253;34.688;33.040;2023-01-29T07:12:31;100983.91;;;15.81;100.00
49377;BME280;35253;34.688;33.040;2023-01-29T07:14:57;100992.25;;;15.89;100.00
49377;BME280;35253;34.688;33.040;2023-01-29T07:17:22;100986.84;;;15.77;100.00
49377;BME280;35253;34.688;33.040;2023-01-29T07:19:48;100983.28;;;15.77;100.00
49377;BME280;35253;34.688;33.040;2023-01-29T07:22:13;100983.47;;;15.87;100.00
49377;BME280;35253;34.688;33.040;2023-01-29T07:24:40;100998.28;;;15.92;100.00
49377;BME280;35253;34.688;33.040;2023-01-29T07:27:06;100991.78;;;15.95;100.00
49377;BME280;35253;34.688;33.040;2023-01-29T07:29:31;100988.75;;;15.99;100.00
49377;BME280;35253;34.688;33.040;2023-01-29T07:31:57;100987.66;;;16.02;100.00
49377;BME280;35253;34.688;33.040;2023-01-29T07:34:22;100999.34;;;16.24;100.00
49377;BME280;35253;34.688;33.040;2023-01-29T07:36:47;101001.44;;;16.32;100.00
49377;BME280;35253;34.688;33.040;2023-01-29T07:39:13;101002.69;;;16.39;100.00
49377;BME280;35253;34.688;33.040;2023-01-29T07:41:38;101004.16;;;16.43;100.00
49377;BME280;35253;34.688;33.040;2023-01-29T07:44:04;101000.50;;;16.44;100.00
49377;BME280;35253;34.688;33.040;2023-01-29T07:46:29;100995.47;;;16.51;100.00
49377;BME280;35253;34.688;33.040;2023-01-29T07:48:55;100995.09;;;16.55;100.00
49377;BME280;35253;34.688;33.040;2023-01-29T07:51:22;101004.47;;;16.62;100.00
49377;BME280;35253;34.688;33.040;2023-01-29T07:53:47;100997.28;;;16.50;100.00
49377;BME280;35253;34.688;33.040;2023-01-29T07:56:12;101000.75;;;16.52;100.00
49377;BME280;35253;34.688;33.040;2023-01-29T07:58:38;100989.53;;;16.58;100.00
49377;BME280;35253;34.688;33.040;2023-01-29T08:01:04;100988.06;;;16.65;100.00
49377;BME280;35253;34.688;33.040;2023-01-29T08:03:30;100987.78;;;16.68;100.00
49377;BME280;35253;34.688;33.040;2023-01-29T08:05:56;100989.38;;;16.82;100.00
49377;BME280;35253;34.688;33.040;2023-01-29T08:08:21;100990.72;;;16.99;100.00
49377;BME280;35253;34.688;33.040;2023-01-29T08:10:47;100989.63;;;17.01;100.00
49377;BME280;35253;34.688;33.040;2023-01-29T08:13:12;100992.81;;;17.06;100.00
49377;BME280;35253;34.688;33.040;2023-01-29T08:15:38;100982.38;;;17.24;100.00
49377;BME280;35253;34.688;33.040;2023-01-29T08:18:06;100985.06;;;17.24;100.00
49377;BME280;35253;34.688;33.040;2023-01-29T08:20:31;100973.50;;;17.33;100.00
49377;BME280;35253;34.688;33.040;2023-01-29T08:23:01;100978.91;;;17.33;100.00
49377;BME280;35253;34.688;33.040;2023-01-29T08:25:27;100966.66;;;17.40;100.00
49377;BME280;35253;34.688;33.040;2023-01-29T08:27:53;100959.38;;;17.52;100.00
49377;BME280;35253;34.688;33.040;2023-01-29T08:30:18;100961.81;;;17.55;100.00
49377;BME280;35253;34.688;33.040;2023-01-29T08:32:44;100957.25;;;17.55;100.00
49377;BME280;35253;34.688;33.040;2023-01-29T08:35:09;100950.91;;;17.68;100.00
49377;BME280;35253;34.688;33.040;2023-01-29T08:37:35;100952.94;;;17.75;100.00
49377;BME280;35253;34.688;33.040;2023-01-29T08:40:00;100948.19;;;17.68;100.00
49377;BME280;35253;34.688;33.040;2023-01-29T08:42:26;100936.81;;;17.53;100.00
49377;BME280;35253;34.688;33.040;2023-01-29T08:44:51;100936.81;;;17.53;100.00
49377;BME280;35253;34.688;33.040;2023-01-29T08:47:16;100930.69;;;17.51;100.00
49377;BME280;35253;34.688;33.040;2023-01-29T08:49:42;100927.50;;;17.57;100.00
49377;BME280;35253;34.688;33.040;2023-01-29T08:52:07;100928.78;;;17.74;100.00
49377;BME280;35253;34.688;33.040;2023-01-29T08:54:33;100919.72;;;17.75;100.00
49377;BME280;35253;34.688;33.040;2023-01-29T08:56:58;100916.03;;;17.76;100.00
49377;BME280;35253;34.688;33.040;2023-01-29T08:59:29;100913.53;;;17.84;100.00
49377;BME280;35253;34.688;33.040;2023-01-29T09:01:54;100910.97;;;17.82;100.00
49377;BME280;35253;34.688;33.040;2023-01-29T09:04:20;100909.19;;;17.72;100.00
49377;BME280;35253;34.688;33.040;2023-01-29T09:06:46;100904.41;;;17.75;100.00
49377;BME280;35253;34.688;33.040;2023-01-29T09:09:11;100905.75;;;17.90;100.00
49377;BME280;35253;34.688;33.040;2023-01-29T09:11:38;100899.19;;;18.04;100.00
49377;BME280;35253;34.688;33.040;2023-01-29T09:14:04;100899.78;;;18.08;100.00
49377;BME280;35253;34.688;33.040;2023-01-29T09:16:30;100890.16;;;18.15;100.00
49377;BME280;35253;34.688;33.040;2023-01-29T09:18:55;100899.75;;;18.28;100.00
49377;BME280;35253;34.688;33.040;2023-01-29T09:21:21;100894.19;;;18.20;100.00
49377;BME280;35253;34.688;33.040;2023-01-29T09:23:46;100889.03;;;18.17;100.00
49377;BME280;35253;34.688;33.040;2023-01-29T09:26:11;100880.84;;;18.28;100.00
49377;BME280;35253;34.688;33.040;2023-01-29T09:28:37;100870.97;;;18.38;100.00
49377;BME280;35253;34.688;33.040;2023-01-29T09:31:02;100873.56;;;18.50;100.00
49377;BME280;35253;34.688;33.040;2023-01-29T09:33:28;100865.56;;;18.38;100.00
49377;BME280;35253;34.688;33.040;2023-01-29T09:35:55;100872.81;;;18.47;100.00
49377;BME280;35253;34.688;33.040;2023-01-29T09:38:20;100861.97;;;18.59;100.00
49377;BME280;35253;34.688;33.040;2023-01-29T09:43:42;100863.13;;;18.66;100.00
49377;BME280;35253;34.688;33.040;2023-01-29T09:46:20;100854.34;;;18.83;100.00
49377;BME280;35253;34.688;33.040;2023-01-29T09:48:56;100845.81;;;18.87;100.00
49377;BME280;35253;34.688;33.040;2023-01-29T09:51:42;100850.94;;;18.81;100.00
49377;BME280;35253;34.688;33.040;2023-01-29T09:56:34;100835.59;;;18.91;100.00
49377;BME280;35253;34.688;33.040;2023-01-29T09:59:00;100835.16;;;18.86;100.00
49377;BME280;35253;34.688;33.040;2023-01-29T10:01:36;100821.47;;;18.59;100.00
49377;BME280;35253;34.688;33.040;2023-01-29T10:04:06;100816.47;;;18.54;100.00
49377;BME280;35253;34.688;33.040;2023-01-29T10:12:29;100802.16;;;18.73;100.00
49377;BME280;35253;34.688;33.040;2023-01-29T10:20:21;100803.34;;;18.99;100.00
49377;BME280;35253;34.688;33.040;2023-01-29T10:25:22;100791.50;;;19.00;100.00
49377;BME280;35253;34.688;33.040;2023-01-29T10:27:49;100783.25;;;18.92;100.00
49377;BME280;35253;34.688;33.040;2023-01-29T10:32:44;100775.00;;;18.94;100.00
49377;BME280;35253;34.688;33.040;2023-01-29T10:35:29;100777.31;;;19.17;100.00
49377;BME280;35253;34.688;33.040;2023-01-29T10:37:55;100771.72;;;19.19;100.00
49377;BME280;35253;34.688;33.040;2023-01-29T10:43:38;100759.63;;;19.13;100.00
49377;BME280;35253;34.688;33.040;2023-01-29T10:46:09;100756.53;;;19.08;100.00
49377;BME280;35253;34.688;33.040;2023-01-29T10:48:52;100756.25;;;19.02;100.00
49377;BME280;35253;34.688;33.040;2023-01-29T10:51:29;100753.09;;;18.87;100.00
49377;BME280;35253;34.688;33.040;2023-01-29T10:54:06;100753.09;;;18.87;100.00
49377;BME280;35253;34.688;33.040;2023-01-29T10:57:33;100751.41;;;18.86;100.00
49377;BME280;35253;34.688;33.040;2023-01-29T11:01:49;100749.28;;;18.99;100.00
49377;BME280;35253;34.688;33.040;2023-01-29T11:04:16;100751.53;;;19.13;100.00
49377;BME280;35253;34.688;33.040;2023-01-29T11:06:41;100746.00;;;19.05;100.00
49377;BME280;35253;34.688;33.040;2023-01-29T11:09:08;100745.13;;;19.05;100.00
49377;BME280;35253;34.688;33.040;2023-01-29T11:14:09;100721.66;;;19.15;100.00
49377;BME280;35253;34.688;33.040;2023-01-29T11:16:40;100744.88;;;19.17;100.00
49377;BME280;35253;34.688;33.040;2023-01-29T11:19:06;100721.22;;;19.39;100.00
49377;BME280;35253;34.688;33.040;2023-01-29T11:21:33;100731.91;;;19.30;100.00
49377;BME280;35253;34.688;33.040;2023-01-29T11:24:14;100715.06;;;19.36;100.00
49377;BME280;35253;34.688;33.040;2023-01-29T11:26:43;100700.44;;;19.39;100.00
49377;BME280;35253;34.688;33.040;2023-01-29T11:31:54;100712.00;;;19.78;100.00
49377;BME280;35253;34.688;33.040;2023-01-29T11:34:21;100700.25;;;19.60;100.00
49377;BME280;35253;34.688;33.040;2023-01-29T11:36:56;100719.19;;;19.41;100.00
49377;BME280;35253;34.688;33.040;2023-01-29T11:39:22;100702.47;;;20.01;100.00
49377;BME280;35253;34.688;33.040;2023-01-29T11:41:51;100690.09;;;19.71;100.00
49377;BME280;35253;34.688;33.040;2023-01-29T11:44:18;100689.13;;;19.63;100.00
49377;BME280;35253;34.688;33.040;2023-01-29T11:46:43;100695.38;;;19.63;100.00
49377;BME280;35253;34.688;33.040;2023-01-29T11:49:11;100693.00;;;19.60;100.00
49377;BME280;35253;34.688;33.040;2023-01-29T11:51:43;100698.94;;;19.64;100.00
49377;BME280;35253;34.688;33.040;2023-01-29T11:54:15;100688.28;;;19.53;100.00
49377;BME280;35253;34.688;33.040;2023-01-29T11:56:42;100686.72;;;19.60;100.00
49377;BME280;35253;34.688;33.040;2023-01-29T12:01:53;100678.22;;;20.09;100.00
49377;BME280;35253;34.688;33.040;2023-01-29T12:04:19;100676.38;;;19.83;100.00
49377;BME280;35253;34.688;33.040;2023-01-29T12:06:46;100680.06;;;19.82;100.00
49377;BME280;35253;34.688;33.040;2023-01-29T12:09:17;100680.16;;;19.62;100.00
49377;BME280;35253;34.688;33.040;2023-01-29T12:11:43;100675.34;;;19.84;100.00
49377;BME280;35253;34.688;33.040;2023-01-29T12:16:58;100667.50;;;19.90;100.00
49377;BME280;35253;34.688;33.040;2023-01-29T12:21:59;100667.94;;;19.86;100.00
49377;BME280;35253;34.688;33.040;2023-01-29T12:25:02;100664.97;;;19.79;100.00
49377;BME280;35253;34.688;33.040;2023-01-29T12:35:15;100649.19;;;20.02;100.00
49377;BME280;35253;34.688;33.040;2023-01-29T12:37:52;100654.56;;;20.11;100.00
49377;BME280;35253;34.688;33.040;2023-01-29T12:40:19;100658.25;;;20.38;100.00
49377;BME280;35253;34.688;33.040;2023-01-29T12:42:50;100651.00;;;20.29;100.00
49377;BME280;35253;34.688;33.040;2023-01-29T12:45:18;100668.09;;;19.84;100.00
49377;BME280;35253;34.688;33.040;2023-01-29T12:47:58;100672.41;;;19.77;100.00
49377;BME280;35253;34.688;33.040;2023-01-29T12:50:26;100654.00;;;20.08;100.00
49377;BME280;35253;34.688;33.040;2023-01-29T12:55:24;100665.63;;;19.63;100.00
49377;BME280;35253;34.688;33.040;2023-01-29T12:58:00;100663.09;;;19.89;100.00
49377;BME280;35253;34.688;33.040;2023-01-29T13:00:28;100664.47;;;20.20;100.00
49377;BME280;35253;34.688;33.040;2023-01-29T13:05:51;100665.41;;;19.38;100.00
49377;BME280;35253;34.688;33.040;2023-01-29T13:10:45;100657.53;;;19.63;100.00
49377;BME280;35253;34.688;33.040;2023-01-29T13:15:39;100671.06;;;19.54;100.00
49377;BME280;35253;34.688;33.040;2023-01-29T13:20:47;100663.34;;;19.68;100.00
49377;BME280;35253;34.688;33.040;2023-01-29T13:23:20;100666.69;;;19.80;100.00
49377;BME280;35253;34.688;33.040;2023-01-29T13:25:53;100672.88;;;20.00;100.00
49377;BME280;35253;34.688;33.040;2023-01-29T13:28:20;100686.31;;;19.92;100.00
49377;BME280;35253;34.688;33.040;2023-01-29T13:30:46;100663.56;;;19.48;100.00
49377;BME280;35253;34.688;33.040;2023-01-29T13:33:31;100679.09;;;19.26;100.00
49377;BME280;35253;34.688;33.040;2023-01-29T13:35:57;100675.84;;;19.13;100.00
49377;BME280;35253;34.688;33.040;2023-01-29T13:38:24;100677.28;;;19.73;100.00
49377;BME280;35253;34.688;33.040;2023-01-29T13:40:51;100678.22;;;19.82;100.00
49377;BME280;35253;34.688;33.040;2023-01-29T13:43:19;100681.97;;;19.99;100.00
49377;BME280;35253;34.688;33.040;2023-01-29T13:45:45;100681.63;;;20.56;100.00
49377;BME280;35253;34.688;33.040;2023-01-29T13:50:45;100698.44;;;20.05;100.00
49377;BME280;35253;34.688;33.040;2023-01-29T13:53:19;100690.84;;;19.64;100.00
49377;BME280;35253;34.688;33.040;2023-01-29T13:55:45;100694.69;;;19.61;100.00
49377;BME280;35253;34.688;33.040;2023-01-29T13:58:15;100700.91;;;19.71;100.00
49377;BME280;35253;34.688;33.040;2023-01-29T14:05:41;100661.78;;;25.33;73.27
49377;BME280;35253;34.688;33.040;2023-01-29T14:10:33;100711.09;;;26.28;67.00
49377;BME280;35253;34.688;33.040;2023-01-29T14:15:28;100720.16;;;20.68;92.26
49377;BME280;35253;34.688;33.040;2023-01-29T14:20:22;100662.84;;;23.71;81.19
49377;BME280;35253;34.688;33.040;2023-01-29T14:22:55;100691.31;;;24.69;72.22
49377;BME280;35253;34.688;33.040;2023-01-29T14:25:22;100700.84;;;23.32;77.28
49377;BME280;35253;34.688;33.040;2023-01-29T14:27:52;100699.00;;;22.76;80.70
49377;BME280;35253;34.688;33.040;2023-01-29T14:30:18;100701.38;;;21.79;89.99
49377;BME280;35253;34.688;33.040;2023-01-29T14:32:47;100700.88;;;22.18;89.22
49377;BME280;35253;34.688;33.040;2023-01-29T14:35:17;100707.03;;;19.73;100.00
49377;BME280;35253;34.688;33.040;2023-01-29T14:37:47;100710.72;;;19.16;100.00
49377;BME280;35253;34.688;33.040;2023-01-29T14:53:10;100715.91;;;17.82;100.00